sensor_id;sensor_type;location;lat;lon;timestamp;P1;durP1;ratioP1;P2;durP2;ratioP2
76210;SDS011;65003;49.518;11.280;2023-03-17T00:00:05;2.60;;;1.60;;
76210;SDS011;65003;49.518;11.280;2023-03-17T00:02:33;2.40;;;1.40;;
76210;SDS011;65003;49.518;11.280;2023-03-17T00:05:01;2.03;;;1.43;;
76210;SDS011;65003;49.518;11.280;2023-03-17T00:26:37;2.03;;;1.50;;
76210;SDS011;65003;49.518;11.280;2023-03-17T00:29:05;3.17;;;1.50;;
76210;SDS011;65003;49.518;11.280;2023-03-17T00:31:32;2.57;;;1.43;;
76210;SDS011;65003;49.518;11.280;2023-03-17T00:33:58;3.00;;;1.80;;
76210;SDS011;65003;49.518;11.280;2023-03-17T00:36:26;1.70;;;1.37;;
76210;SDS011;65003;49.518;11.280;2023-03-17T00:38:53;3.63;;;1.83;;
76210;SDS011;65003;49.518;11.280;2023-03-17T00:41:20;2.00;;;1.53;;
76210;SDS011;65003;49.518;11.280;2023-03-17T00:43:46;2.90;;;1.80;;
76210;SDS011;65003;49.518;11.280;2023-03-17T00:46:15;3.17;;;1.57;;
76210;SDS011;65003;49.518;11.280;2023-03-17T00:48:50;2.20;;;1.40;;
76210;SDS011;65003;49.518;11.280;2023-03-17T00:51:16;1.70;;;1.60;;
76210;SDS011;65003;49.518;11.280;2023-03-17T00:53:43;1.97;;;1.47;;
76210;SDS011;65003;49.518;11.280;2023-03-17T00:56:12;2.67;;;1.67;;
76210;SDS011;65003;49.518;11.280;2023-03-17T00:58:38;2.80;;;1.70;;
76210;SDS011;65003;49.518;11.280;2023-03-17T01:01:04;2.53;;;1.60;;
76210;SDS011;65003;49.518;11.280;2023-03-17T01:03:32;2.77;;;1.53;;
76210;SDS011;65003;49.518;11.280;2023-03-17T01:05:58;2.00;;;1.90;;
76210;SDS011;65003;49.518;11.280;2023-03-17T01:08:26;3.90;;;1.53;;
76210;SDS011;65003;49.518;11.280;2023-03-17T01:10:53;2.57;;;1.70;;
76210;SDS011;65003;49.518;11.280;2023-03-17T01:13:19;2.93;;;1.40;;
76210;SDS011;65003;49.518;11.280;2023-03-17T01:15:47;4.07;;;1.60;;
76210;SDS011;65003;49.518;11.280;2023-03-17T01:18:14;2.23;;;1.83;;
76210;SDS011;65003;49.518;11.280;2023-03-17T01:20:40;2.93;;;1.50;;
76210;SDS011;65003;49.518;11.280;2023-03-17T01:23:08;2.57;;;1.57;;
76210;SDS011;65003;49.518;11.280;2023-03-17T01:25:35;2.00;;;1.80;;
76210;SDS011;65003;49.518;11.280;2023-03-17T01:28:01;3.40;;;1.73;;
76210;SDS011;65003;49.518;11.280;2023-03-17T01:30:29;2.10;;;1.67;;
76210;SDS011;65003;49.518;11.280;2023-03-17T01:32:59;2.10;;;1.70;;
76210;SDS011;65003;49.518;11.280;2023-03-17T01:35:26;2.37;;;1.67;;
76210;SDS011;65003;49.518;11.280;2023-03-17T01:37:52;3.20;;;1.57;;
76210;SDS011;65003;49.518;11.280;2023-03-17T01:40:22;1.60;;;1.40;;
76210;SDS011;65003;49.518;11.280;2023-03-17T01:42:51;4.83;;;1.70;;
76210;SDS011;65003;49.518;11.280;2023-03-17T01:47:56;2.72;;;1.62;;
76210;SDS011;65003;49.518;11.280;2023-03-17T01:50:23;2.40;;;1.83;;
76210;SDS011;65003;49.518;11.280;2023-03-17T01:52:50;3.37;;;1.70;;
76210;SDS011;65003;49.518;11.280;2023-03-17T01:55:17;3.60;;;2.07;;
76210;SDS011;65003;49.518;11.280;2023-03-17T01:57:47;3.93;;;1.60;;
76210;SDS011;65003;49.518;11.280;2023-03-17T02:00:14;3.47;;;1.47;;
76210;SDS011;65003;49.518;11.280;2023-03-17T02:02:42;3.90;;;1.67;;
76210;SDS011;65003;49.518;11.280;2023-03-17T02:05:09;3.53;;;1.57;;
76210;SDS011;65003;49.518;11.280;2023-03-17T02:07:35;1.93;;;1.47;;
76210;SDS011;65003;49.518;11.280;2023-03-17T02:10:03;3.80;;;1.70;;
76210;SDS011;65003;49.518;11.280;2023-03-17T02:12:30;1.73;;;1.37;;
76210;SDS011;65003;49.518;11.280;2023-03-17T02:14:57;2.67;;;1.40;;
76210;SDS011;65003;49.518;11.280;2023-03-17T02:17:24;2.97;;;1.50;;
76210;SDS011;65003;49.518;11.280;2023-03-17T02:19:50;2.40;;;1.57;;
76210;SDS011;65003;49.518;11.280;2023-03-17T02:22:17;2.90;;;1.70;;
76210;SDS011;65003;49.518;11.280;2023-03-17T02:24:46;1.67;;;1.47;;
76210;SDS011;65003;49.518;11.280;2023-03-17T02:27:16;3.77;;;1.63;;
76210;SDS011;65003;49.518;11.280;2023-03-17T02:29:42;2.23;;;1.73;;
76210;SDS011;65003;49.518;11.280;2023-03-17T02:32:09;2.13;;;1.73;;
76210;SDS011;65003;49.518;11.280;2023-03-17T02:34:35;2.50;;;1.50;;
76210;SDS011;65003;49.518;11.280;2023-03-17T02:37:02;2.60;;;1.70;;
76210;SDS011;65003;49.518;11.280;2023-03-17T02:39:28;3.63;;;1.80;;
76210;SDS011;65003;49.518;11.280;2023-03-17T02:41:56;2.33;;;1.43;;
76210;SDS011;65003;49.518;11.280;2023-03-17T02:44:23;1.73;;;1.43;;
76210;SDS011;65003;49.518;11.280;2023-03-17T02:46:49;2.77;;;2.00;;
76210;SDS011;65003;49.518;11.280;2023-03-17T02:49:16;3.30;;;1.60;;
76210;SDS011;65003;49.518;11.280;2023-03-17T02:51:43;5.27;;;1.50;;
76210;SDS011;65003;49.518;11.280;2023-03-17T02:54:10;3.63;;;1.50;;
76210;SDS011;65003;49.518;11.280;2023-03-17T02:56:38;3.70;;;1.77;;
76210;SDS011;65003;49.518;11.280;2023-03-17T02:59:04;2.33;;;1.40;;
76210;SDS011;65003;49.518;11.280;2023-03-17T03:01:31;2.50;;;1.53;;
76210;SDS011;65003;49.518;11.280;2023-03-17T03:03:58;3.67;;;1.80;;
76210;SDS011;65003;49.518;11.280;2023-03-17T03:06:25;2.27;;;1.60;;
76210;SDS011;65003;49.518;11.280;2023-03-17T03:08:54;3.63;;;1.37;;
76210;SDS011;65003;49.518;11.280;2023-03-17T03:11:22;2.07;;;1.40;;
76210;SDS011;65003;49.518;11.280;2023-03-17T03:13:48;3.90;;;1.57;;
76210;SDS011;65003;49.518;11.280;2023-03-17T03:16:16;1.87;;;1.50;;
76210;SDS011;65003;49.518;11.280;2023-03-17T03:18:43;1.83;;;1.30;;
76210;SDS011;65003;49.518;11.280;2023-03-17T03:21:10;2.30;;;1.80;;
76210;SDS011;65003;49.518;11.280;2023-03-17T03:23:37;1.80;;;1.20;;
76210;SDS011;65003;49.518;11.280;2023-03-17T03:26:04;2.73;;;1.60;;
76210;SDS011;65003;49.518;11.280;2023-03-17T03:28:31;2.83;;;1.37;;
76210;SDS011;65003;49.518;11.280;2023-03-17T03:30:58;2.83;;;2.07;;
76210;SDS011;65003;49.518;11.280;2023-03-17T03:33:25;2.10;;;1.37;;
76210;SDS011;65003;49.518;11.280;2023-03-17T03:35:51;2.10;;;1.70;;
76210;SDS011;65003;49.518;11.280;2023-03-17T03:38:18;2.47;;;1.77;;
76210;SDS011;65003;49.518;11.280;2023-03-17T03:40:45;1.20;;;1.10;;
76210;SDS011;65003;49.518;11.280;2023-03-17T03:43:12;4.17;;;1.33;;
76210;SDS011;65003;49.518;11.280;2023-03-17T03:45:38;6.17;;;1.90;;
76210;SDS011;65003;49.518;11.280;2023-03-17T03:48:05;1.47;;;1.30;;
76210;SDS011;65003;49.518;11.280;2023-03-17T03:50:32;2.13;;;1.27;;
76210;SDS011;65003;49.518;11.280;2023-03-17T03:52:59;2.40;;;1.50;;
76210;SDS011;65003;49.518;11.280;2023-03-17T03:55:25;3.93;;;1.70;;
76210;SDS011;65003;49.518;11.280;2023-03-17T03:57:52;2.17;;;1.40;;
76210;SDS011;65003;49.518;11.280;2023-03-17T04:00:19;2.10;;;1.53;;
76210;SDS011;65003;49.518;11.280;2023-03-17T04:02:46;2.83;;;1.30;;
76210;SDS011;65003;49.518;11.280;2023-03-17T04:05:13;1.60;;;1.10;;
76210;SDS011;65003;49.518;11.280;2023-03-17T04:07:43;4.90;;;1.90;;
76210;SDS011;65003;49.518;11.280;2023-03-17T04:10:11;4.33;;;2.03;;
76210;SDS011;65003;49.518;11.280;2023-03-17T04:12:37;3.67;;;1.90;;
76210;SDS011;65003;49.518;11.280;2023-03-17T04:15:05;2.13;;;1.90;;
76210;SDS011;65003;49.518;11.280;2023-03-17T04:17:32;3.93;;;1.33;;
76210;SDS011;65003;49.518;11.280;2023-03-17T04:19:59;5.43;;;2.03;;
76210;SDS011;65003;49.518;11.280;2023-03-17T04:22:26;4.83;;;1.60;;
76210;SDS011;65003;49.518;11.280;2023-03-17T04:24:52;5.20;;;1.87;;
76210;SDS011;65003;49.518;11.280;2023-03-17T04:27:20;4.73;;;1.70;;
76210;SDS011;65003;49.518;11.280;2023-03-17T04:29:48;2.03;;;1.43;;
76210;SDS011;65003;49.518;11.280;2023-03-17T04:32:14;1.90;;;1.67;;
76210;SDS011;65003;49.518;11.280;2023-03-17T04:34:42;1.73;;;1.53;;
76210;SDS011;65003;49.518;11.280;2023-03-17T04:37:09;2.47;;;1.60;;
76210;SDS011;65003;49.518;11.280;2023-03-17T04:39:35;1.47;;;1.30;;
76210;SDS011;65003;49.518;11.280;2023-03-17T04:42:03;2.40;;;1.50;;
76210;SDS011;65003;49.518;11.280;2023-03-17T04:44:31;2.70;;;2.43;;
76210;SDS011;65003;49.518;11.280;2023-03-17T04:46:58;3.10;;;1.70;;
76210;SDS011;65003;49.518;11.280;2023-03-17T04:49:25;2.33;;;1.40;;
76210;SDS011;65003;49.518;11.280;2023-03-17T04:51:52;4.37;;;1.77;;
76210;SDS011;65003;49.518;11.280;2023-03-17T04:54:18;3.23;;;1.70;;
76210;SDS011;65003;49.518;11.280;2023-03-17T04:56:45;3.83;;;1.40;;
76210;SDS011;65003;49.518;11.280;2023-03-17T04:59:11;2.40;;;1.77;;
76210;SDS011;65003;49.518;11.280;2023-03-17T05:01:38;5.57;;;1.87;;
76210;SDS011;65003;49.518;11.280;2023-03-17T05:04:07;4.00;;;1.40;;
76210;SDS011;65003;49.518;11.280;2023-03-17T05:06:34;4.93;;;1.47;;
76210;SDS011;65003;49.518;11.280;2023-03-17T05:09:01;6.50;;;1.60;;
76210;SDS011;65003;49.518;11.280;2023-03-17T05:11:27;1.67;;;1.47;;
76210;SDS011;65003;49.518;11.280;2023-03-17T05:13:54;1.63;;;1.40;;
76210;SDS011;65003;49.518;11.280;2023-03-17T05:16:20;2.10;;;1.90;;
76210;SDS011;65003;49.518;11.280;2023-03-17T05:18:47;1.77;;;1.23;;
76210;SDS011;65003;49.518;11.280;2023-03-17T05:21:13;2.07;;;1.60;;
76210;SDS011;65003;49.518;11.280;2023-03-17T05:23:40;1.90;;;1.50;;
76210;SDS011;65003;49.518;11.280;2023-03-17T05:26:07;3.17;;;1.50;;
76210;SDS011;65003;49.518;11.280;2023-03-17T05:28:33;3.97;;;1.70;;
76210;SDS011;65003;49.518;11.280;2023-03-17T05:31:00;2.13;;;1.47;;
76210;SDS011;65003;49.518;11.280;2023-03-17T05:33:26;1.57;;;1.20;;
76210;SDS011;65003;49.518;11.280;2023-03-17T05:35:53;1.53;;;1.37;;
76210;SDS011;65003;49.518;11.280;2023-03-17T05:38:20;1.63;;;1.53;;
76210;SDS011;65003;49.518;11.280;2023-03-17T05:40:48;1.90;;;1.60;;
76210;SDS011;65003;49.518;11.280;2023-03-17T05:43:14;2.40;;;1.77;;
76210;SDS011;65003;49.518;11.280;2023-03-17T05:45:41;5.20;;;1.90;;
76210;SDS011;65003;49.518;11.280;2023-03-17T05:48:08;10.03;;;3.37;;
76210;SDS011;65003;49.518;11.280;2023-03-17T05:50:35;7.30;;;1.90;;
76210;SDS011;65003;49.518;11.280;2023-03-17T05:53:01;3.60;;;2.03;;
76210;SDS011;65003;49.518;11.280;2023-03-17T05:55:28;3.97;;;2.50;;
76210;SDS011;65003;49.518;11.280;2023-03-17T05:57:54;7.87;;;3.03;;
76210;SDS011;65003;49.518;11.280;2023-03-17T06:00:22;3.00;;;1.90;;
76210;SDS011;65003;49.518;11.280;2023-03-17T06:02:49;2.40;;;1.67;;
76210;SDS011;65003;49.518;11.280;2023-03-17T06:05:16;5.67;;;1.97;;
76210;SDS011;65003;49.518;11.280;2023-03-17T06:07:42;2.63;;;1.67;;
76210;SDS011;65003;49.518;11.280;2023-03-17T06:10:10;1.63;;;1.20;;
76210;SDS011;65003;49.518;11.280;2023-03-17T06:12:37;3.80;;;2.00;;
76210;SDS011;65003;49.518;11.280;2023-03-17T06:15:05;2.53;;;1.40;;
76210;SDS011;65003;49.518;11.280;2023-03-17T06:17:33;2.53;;;1.70;;
76210;SDS011;65003;49.518;11.280;2023-03-17T06:20:01;2.43;;;1.87;;
76210;SDS011;65003;49.518;11.280;2023-03-17T06:22:27;2.47;;;1.37;;
76210;SDS011;65003;49.518;11.280;2023-03-17T06:24:54;2.37;;;1.73;;
76210;SDS011;65003;49.518;11.280;2023-03-17T06:27:20;3.93;;;1.93;;
76210;SDS011;65003;49.518;11.280;2023-03-17T06:29:47;3.53;;;2.03;;
76210;SDS011;65003;49.518;11.280;2023-03-17T06:32:14;3.60;;;1.83;;
76210;SDS011;65003;49.518;11.280;2023-03-17T06:34:40;2.70;;;1.90;;
76210;SDS011;65003;49.518;11.280;2023-03-17T06:37:07;3.10;;;1.53;;
76210;SDS011;65003;49.518;11.280;2023-03-17T06:39:34;3.67;;;1.90;;
76210;SDS011;65003;49.518;11.280;2023-03-17T06:42:02;2.23;;;1.67;;
76210;SDS011;65003;49.518;11.280;2023-03-17T06:44:28;2.57;;;1.27;;
76210;SDS011;65003;49.518;11.280;2023-03-17T06:46:54;3.50;;;1.50;;
76210;SDS011;65003;49.518;11.280;2023-03-17T06:49:21;3.10;;;1.67;;
76210;SDS011;65003;49.518;11.280;2023-03-17T06:51:48;3.17;;;1.50;;
76210;SDS011;65003;49.518;11.280;2023-03-17T06:54:15;3.53;;;1.87;;
76210;SDS011;65003;49.518;11.280;2023-03-17T06:56:42;3.27;;;1.90;;
76210;SDS011;65003;49.518;11.280;2023-03-17T06:59:09;1.77;;;1.33;;
76210;SDS011;65003;49.518;11.280;2023-03-17T07:01:36;1.80;;;1.60;;
76210;SDS011;65003;49.518;11.280;2023-03-17T07:04:02;2.23;;;1.40;;
76210;SDS011;65003;49.518;11.280;2023-03-17T07:06:29;6.57;;;2.13;;
76210;SDS011;65003;49.518;11.280;2023-03-17T07:08:58;5.12;;;1.94;;
76210;SDS011;65003;49.518;11.280;2023-03-17T07:11:25;2.73;;;1.40;;
76210;SDS011;65003;49.518;11.280;2023-03-17T07:13:54;4.23;;;1.90;;
76210;SDS011;65003;49.518;11.280;2023-03-17T07:16:21;2.10;;;1.50;;
76210;SDS011;65003;49.518;11.280;2023-03-17T07:18:47;3.07;;;1.70;;
76210;SDS011;65003;49.518;11.280;2023-03-17T07:21:14;2.93;;;1.70;;
76210;SDS011;65003;49.518;11.280;2023-03-17T07:23:40;2.63;;;1.50;;
76210;SDS011;65003;49.518;11.280;2023-03-17T07:26:07;2.97;;;1.70;;
76210;SDS011;65003;49.518;11.280;2023-03-17T07:28:34;3.27;;;2.00;;
76210;SDS011;65003;49.518;11.280;2023-03-17T07:31:00;2.43;;;1.57;;
76210;SDS011;65003;49.518;11.280;2023-03-17T07:33:28;2.10;;;1.50;;
76210;SDS011;65003;49.518;11.280;2023-03-17T07:35:54;4.33;;;1.87;;
76210;SDS011;65003;49.518;11.280;2023-03-17T07:38:21;2.60;;;1.40;;
76210;SDS011;65003;49.518;11.280;2023-03-17T07:40:47;2.53;;;1.93;;
76210;SDS011;65003;49.518;11.280;2023-03-17T07:43:14;3.63;;;1.50;;
76210;SDS011;65003;49.518;11.280;2023-03-17T07:45:41;3.73;;;1.70;;
76210;SDS011;65003;49.518;11.280;2023-03-17T07:48:10;4.03;;;1.40;;
76210;SDS011;65003;49.518;11.280;2023-03-17T07:50:37;2.60;;;1.60;;
76210;SDS011;65003;49.518;11.280;2023-03-17T07:53:04;3.83;;;1.57;;
76210;SDS011;65003;49.518;11.280;2023-03-17T07:55:31;2.80;;;1.60;;
76210;SDS011;65003;49.518;11.280;2023-03-17T07:57:58;4.00;;;1.23;;
76210;SDS011;65003;49.518;11.280;2023-03-17T08:00:24;3.13;;;1.40;;
76210;SDS011;65003;49.518;11.280;2023-03-17T08:02:51;2.40;;;1.40;;
76210;SDS011;65003;49.518;11.280;2023-03-17T08:05:18;1.53;;;1.30;;
76210;SDS011;65003;49.518;11.280;2023-03-17T08:07:44;3.47;;;1.73;;
76210;SDS011;65003;49.518;11.280;2023-03-17T08:10:11;2.40;;;1.63;;
76210;SDS011;65003;49.518;11.280;2023-03-17T08:12:38;6.10;;;2.00;;
76210;SDS011;65003;49.518;11.280;2023-03-17T08:15:05;1.83;;;1.37;;
76210;SDS011;65003;49.518;11.280;2023-03-17T08:17:33;4.33;;;2.00;;
76210;SDS011;65003;49.518;11.280;2023-03-17T08:20:00;1.73;;;1.30;;
76210;SDS011;65003;49.518;11.280;2023-03-17T08:22:27;1.83;;;1.30;;
76210;SDS011;65003;49.518;11.280;2023-03-17T08:24:54;1.30;;;1.20;;
76210;SDS011;65003;49.518;11.280;2023-03-17T08:27:21;2.57;;;1.23;;
76210;SDS011;65003;49.518;11.280;2023-03-17T08:29:48;2.70;;;1.37;;
76210;SDS011;65003;49.518;11.280;2023-03-17T08:32:14;2.33;;;1.50;;
76210;SDS011;65003;49.518;11.280;2023-03-17T08:34:41;1.73;;;1.13;;
76210;SDS011;65003;49.518;11.280;2023-03-17T08:37:07;3.70;;;1.43;;
76210;SDS011;65003;49.518;11.280;2023-03-17T08:39:34;1.03;;;0.93;;
76210;SDS011;65003;49.518;11.280;2023-03-17T08:42:01;4.43;;;1.20;;
76210;SDS011;65003;49.518;11.280;2023-03-17T08:44:27;6.00;;;1.40;;
76210;SDS011;65003;49.518;11.280;2023-03-17T08:46:55;2.30;;;1.30;;
76210;SDS011;65003;49.518;11.280;2023-03-17T08:49:23;3.23;;;2.33;;
76210;SDS011;65003;49.518;11.280;2023-03-17T08:51:49;1.83;;;1.30;;
76210;SDS011;65003;49.518;11.280;2023-03-17T08:54:16;1.57;;;1.40;;
76210;SDS011;65003;49.518;11.280;2023-03-17T08:56:45;3.17;;;1.50;;
76210;SDS011;65003;49.518;11.280;2023-03-17T08:59:11;1.63;;;1.33;;
76210;SDS011;65003;49.518;11.280;2023-03-17T09:01:38;2.63;;;1.33;;
76210;SDS011;65003;49.518;11.280;2023-03-17T09:04:05;3.77;;;1.30;;
76210;SDS011;65003;49.518;11.280;2023-03-17T09:06:32;2.27;;;1.17;;
76210;SDS011;65003;49.518;11.280;2023-03-17T09:08:59;2.80;;;1.30;;
76210;SDS011;65003;49.518;11.280;2023-03-17T09:11:26;3.43;;;1.30;;
76210;SDS011;65003;49.518;11.280;2023-03-17T09:13:53;2.33;;;1.57;;
76210;SDS011;65003;49.518;11.280;2023-03-17T09:16:20;2.50;;;1.50;;
76210;SDS011;65003;49.518;11.280;2023-03-17T09:18:48;1.40;;;1.10;;
76210;SDS011;65003;49.518;11.280;2023-03-17T09:21:14;1.83;;;1.17;;
76210;SDS011;65003;49.518;11.280;2023-03-17T09:23:41;1.30;;;0.90;;
76210;SDS011;65003;49.518;11.280;2023-03-17T09:26:09;3.10;;;1.40;;
76210;SDS011;65003;49.518;11.280;2023-03-17T09:28:36;3.47;;;1.10;;
76210;SDS011;65003;49.518;11.280;2023-03-17T09:31:04;1.23;;;1.13;;
76210;SDS011;65003;49.518;11.280;2023-03-17T09:33:31;1.90;;;1.30;;
76210;SDS011;65003;49.518;11.280;2023-03-17T09:35:57;1.77;;;1.40;;
76210;SDS011;65003;49.518;11.280;2023-03-17T09:38:25;3.30;;;1.27;;
76210;SDS011;65003;49.518;11.280;2023-03-17T09:40:54;1.97;;;1.10;;
76210;SDS011;65003;49.518;11.280;2023-03-17T09:43:27;2.23;;;1.23;;
76210;SDS011;65003;49.518;11.280;2023-03-17T09:46:03;1.20;;;0.93;;
76210;SDS011;65003;49.518;11.280;2023-03-17T09:48:30;1.73;;;1.10;;
76210;SDS011;65003;49.518;11.280;2023-03-17T09:50:58;1.80;;;1.30;;
76210;SDS011;65003;49.518;11.280;2023-03-17T09:53:39;1.10;;;0.83;;
76210;SDS011;65003;49.518;11.280;2023-03-17T09:56:07;1.67;;;0.93;;
76210;SDS011;65003;49.518;11.280;2023-03-17T09:58:34;1.43;;;1.00;;
76210;SDS011;65003;49.518;11.280;2023-03-17T10:01:03;1.00;;;0.90;;
76210;SDS011;65003;49.518;11.280;2023-03-17T10:03:30;1.23;;;1.00;;
76210;SDS011;65003;49.518;11.280;2023-03-17T10:05:58;2.50;;;1.07;;
76210;SDS011;65003;49.518;11.280;2023-03-17T10:08:25;2.90;;;1.10;;
76210;SDS011;65003;49.518;11.280;2023-03-17T10:10:56;3.80;;;1.70;;
76210;SDS011;65003;49.518;11.280;2023-03-17T10:13:57;2.57;;;0.90;;
76210;SDS011;65003;49.518;11.280;2023-03-17T10:16:46;1.60;;;1.07;;
76210;SDS011;65003;49.518;11.280;2023-03-17T10:19:20;2.03;;;1.10;;
76210;SDS011;65003;49.518;11.280;2023-03-17T10:21:51;3.00;;;1.20;;
76210;SDS011;65003;49.518;11.280;2023-03-17T10:24:16;3.47;;;1.07;;
76210;SDS011;65003;49.518;11.280;2023-03-17T10:26:45;2.03;;;0.73;;
76210;SDS011;65003;49.518;11.280;2023-03-17T10:29:13;1.83;;;1.00;;
76210;SDS011;65003;49.518;11.280;2023-03-17T10:31:39;2.00;;;0.83;;
76210;SDS011;65003;49.518;11.280;2023-03-17T10:34:12;1.03;;;0.93;;
76210;SDS011;65003;49.518;11.280;2023-03-17T10:36:38;4.63;;;1.20;;
76210;SDS011;65003;49.518;11.280;2023-03-17T10:39:04;2.73;;;0.90;;
76210;SDS011;65003;49.518;11.280;2023-03-17T10:41:34;1.57;;;0.93;;
76210;SDS011;65003;49.518;11.280;2023-03-17T10:44:00;1.13;;;1.03;;
76210;SDS011;65003;49.518;11.280;2023-03-17T10:46:26;0.73;;;0.73;;
76210;SDS011;65003;49.518;11.280;2023-03-17T10:48:55;1.40;;;0.60;;
76210;SDS011;65003;49.518;11.280;2023-03-17T10:51:26;0.80;;;0.60;;
76210;SDS011;65003;49.518;11.280;2023-03-17T10:53:52;1.73;;;0.80;;
76210;SDS011;65003;49.518;11.280;2023-03-17T10:56:23;0.98;;;0.60;;
76210;SDS011;65003;49.518;11.280;2023-03-17T10:58:49;0.90;;;0.70;;
76210;SDS011;65003;49.518;11.280;2023-03-17T11:01:16;1.92;;;1.10;;
76210;SDS011;65003;49.518;11.280;2023-03-17T11:03:42;1.55;;;0.75;;
76210;SDS011;65003;49.518;11.280;2023-03-17T11:06:09;2.07;;;1.00;;
76210;SDS011;65003;49.518;11.280;2023-03-17T11:08:39;1.98;;;0.72;;
76210;SDS011;65003;49.518;11.280;2023-03-17T11:11:05;2.37;;;0.80;;
76210;SDS011;65003;49.518;11.280;2023-03-17T11:13:31;0.60;;;0.50;;
76210;SDS011;65003;49.518;11.280;2023-03-17T11:18:33;2.83;;;0.70;;
76210;SDS011;65003;49.518;11.280;2023-03-17T11:21:04;1.20;;;0.63;;
76210;SDS011;65003;49.518;11.280;2023-03-17T11:23:41;1.83;;;0.67;;
76210;SDS011;65003;49.518;11.280;2023-03-17T11:28:48;1.63;;;0.80;;
76210;SDS011;65003;49.518;11.280;2023-03-17T11:31:15;1.77;;;0.70;;
76210;SDS011;65003;49.518;11.280;2023-03-17T11:33:50;1.60;;;0.50;;
76210;SDS011;65003;49.518;11.280;2023-03-17T11:36:19;1.53;;;0.80;;
76210;SDS011;65003;49.518;11.280;2023-03-17T11:39:24;1.27;;;0.73;;
76210;SDS011;65003;49.518;11.280;2023-03-17T11:41:41;1.30;;;0.70;;
76210;SDS011;65003;49.518;11.280;2023-03-17T11:44:12;1.50;;;0.90;;
76210;SDS011;65003;49.518;11.280;2023-03-17T11:46:57;1.10;;;0.80;;
76210;SDS011;65003;49.518;11.280;2023-03-17T11:49:30;1.87;;;0.67;;
76210;SDS011;65003;49.518;11.280;2023-03-17T11:51:59;1.10;;;0.67;;
76210;SDS011;65003;49.518;11.280;2023-03-17T11:57:09;1.37;;;0.73;;
76210;SDS011;65003;49.518;11.280;2023-03-17T11:59:38;0.90;;;0.80;;
76210;SDS011;65003;49.518;11.280;2023-03-17T12:02:22;2.87;;;0.90;;
76210;SDS011;65003;49.518;11.280;2023-03-17T12:04:50;3.23;;;1.40;;
76210;SDS011;65003;49.518;11.280;2023-03-17T12:07:21;1.43;;;0.80;;
76210;SDS011;65003;49.518;11.280;2023-03-17T12:10:05;1.97;;;0.73;;
76210;SDS011;65003;49.518;11.280;2023-03-17T12:12:31;2.93;;;0.87;;
76210;SDS011;65003;49.518;11.280;2023-03-17T12:14:57;1.00;;;0.83;;
76210;SDS011;65003;49.518;11.280;2023-03-17T12:17:26;1.70;;;0.77;;
76210;SDS011;65003;49.518;11.280;2023-03-17T12:19:57;1.83;;;0.83;;
76210;SDS011;65003;49.518;11.280;2023-03-17T12:22:25;0.50;;;0.50;;
76210;SDS011;65003;49.518;11.280;2023-03-17T12:25:02;2.53;;;0.70;;
76210;SDS011;65003;49.518;11.280;2023-03-17T12:27:25;0.97;;;0.70;;
76210;SDS011;65003;49.518;11.280;2023-03-17T12:30:02;1.20;;;0.77;;
76210;SDS011;65003;49.518;11.280;2023-03-17T12:32:38;2.97;;;1.20;;
76210;SDS011;65003;49.518;11.280;2023-03-17T12:35:17;1.27;;;1.03;;
76210;SDS011;65003;49.518;11.280;2023-03-17T12:37:52;2.17;;;0.90;;
76210;SDS011;65003;49.518;11.280;2023-03-17T12:40:21;0.63;;;0.60;;
76210;SDS011;65003;49.518;11.280;2023-03-17T12:42:52;2.67;;;0.90;;
76210;SDS011;65003;49.518;11.280;2023-03-17T12:45:33;1.47;;;1.10;;
76210;SDS011;65003;49.518;11.280;2023-03-17T12:48:10;1.67;;;0.80;;
76210;SDS011;65003;49.518;11.280;2023-03-17T12:50:45;2.53;;;0.87;;
76210;SDS011;65003;49.518;11.280;2023-03-17T12:53:22;1.23;;;0.67;;
76210;SDS011;65003;49.518;11.280;2023-03-17T12:55:50;1.13;;;0.90;;
76210;SDS011;65003;49.518;11.280;2023-03-17T12:58:21;1.40;;;0.90;;
76210;SDS011;65003;49.518;11.280;2023-03-17T13:00:47;2.50;;;1.00;;
76210;SDS011;65003;49.518;11.280;2023-03-17T13:03:17;1.67;;;1.00;;
76210;SDS011;65003;49.518;11.280;2023-03-17T13:05:45;3.40;;;0.80;;
76210;SDS011;65003;49.518;11.280;2023-03-17T13:08:14;2.60;;;1.33;;
76210;SDS011;65003;49.518;11.280;2023-03-17T13:10:40;1.83;;;1.03;;
76210;SDS011;65003;49.518;11.280;2023-03-17T13:15:48;1.30;;;0.87;;
76210;SDS011;65003;49.518;11.280;2023-03-17T13:21:15;1.97;;;1.10;;
76210;SDS011;65003;49.518;11.280;2023-03-17T13:23:44;1.50;;;1.10;;
76210;SDS011;65003;49.518;11.280;2023-03-17T13:26:10;2.10;;;0.87;;
76210;SDS011;65003;49.518;11.280;2023-03-17T13:28:40;2.60;;;1.07;;
76210;SDS011;65003;49.518;11.280;2023-03-17T13:31:09;2.03;;;1.23;;
76210;SDS011;65003;49.518;11.280;2023-03-17T13:33:43;2.10;;;0.80;;
76210;SDS011;65003;49.518;11.280;2023-03-17T13:36:27;3.03;;;1.30;;
76210;SDS011;65003;49.518;11.280;2023-03-17T13:39:00;1.53;;;0.63;;
76210;SDS011;65003;49.518;11.280;2023-03-17T13:41:33;1.57;;;0.80;;
76210;SDS011;65003;49.518;11.280;2023-03-17T13:44:06;1.43;;;0.60;;
76210;SDS011;65003;49.518;11.280;2023-03-17T13:46:40;1.70;;;0.83;;
76210;SDS011;65003;49.518;11.280;2023-03-17T13:51:55;1.27;;;0.70;;
76210;SDS011;65003;49.518;11.280;2023-03-17T13:54:30;2.10;;;0.80;;
76210;SDS011;65003;49.518;11.280;2023-03-17T13:56:58;1.53;;;0.77;;
76210;SDS011;65003;49.518;11.280;2023-03-17T14:02:23;0.70;;;0.70;;
76210;SDS011;65003;49.518;11.280;2023-03-17T14:04:51;2.33;;;1.07;;
76210;SDS011;65003;49.518;11.280;2023-03-17T14:07:17;1.73;;;1.00;;
76210;SDS011;65003;49.518;11.280;2023-03-17T14:09:43;2.23;;;0.80;;
76210;SDS011;65003;49.518;11.280;2023-03-17T14:12:11;1.90;;;0.80;;
76210;SDS011;65003;49.518;11.280;2023-03-17T14:14:48;1.00;;;0.80;;
76210;SDS011;65003;49.518;11.280;2023-03-17T14:17:16;1.50;;;1.10;;
76210;SDS011;65003;49.518;11.280;2023-03-17T14:19:57;2.50;;;0.60;;
76210;SDS011;65003;49.518;11.280;2023-03-17T14:22:18;1.50;;;0.77;;
76210;SDS011;65003;49.518;11.280;2023-03-17T14:24:43;4.07;;;1.30;;
76210;SDS011;65003;49.518;11.280;2023-03-17T14:27:10;1.93;;;0.80;;
76210;SDS011;65003;49.518;11.280;2023-03-17T14:29:37;1.63;;;0.50;;
76210;SDS011;65003;49.518;11.280;2023-03-17T14:32:04;1.20;;;1.00;;
76210;SDS011;65003;49.518;11.280;2023-03-17T14:34:31;3.57;;;2.23;;
76210;SDS011;65003;49.518;11.280;2023-03-17T14:37:00;2.97;;;1.70;;
76210;SDS011;65003;49.518;11.280;2023-03-17T14:39:26;4.13;;;2.10;;
76210;SDS011;65003;49.518;11.280;2023-03-17T14:41:59;4.13;;;2.73;;
76210;SDS011;65003;49.518;11.280;2023-03-17T14:44:24;4.00;;;1.93;;
76210;SDS011;65003;49.518;11.280;2023-03-17T14:46:58;3.70;;;1.87;;
76210;SDS011;65003;49.518;11.280;2023-03-17T14:49:26;2.03;;;1.30;;
76210;SDS011;65003;49.518;11.280;2023-03-17T14:51:53;1.50;;;0.93;;
76210;SDS011;65003;49.518;11.280;2023-03-17T14:54:22;2.10;;;1.70;;
76210;SDS011;65003;49.518;11.280;2023-03-17T14:56:50;0.80;;;0.67;;
76210;SDS011;65003;49.518;11.280;2023-03-17T14:59:23;3.33;;;1.63;;
76210;SDS011;65003;49.518;11.280;2023-03-17T15:01:52;2.13;;;0.83;;
76210;SDS011;65003;49.518;11.280;2023-03-17T15:04:20;1.43;;;0.90;;
76210;SDS011;65003;49.518;11.280;2023-03-17T15:06:47;2.43;;;0.70;;
76210;SDS011;65003;49.518;11.280;2023-03-17T15:09:39;1.70;;;1.20;;
76210;SDS011;65003;49.518;11.280;2023-03-17T15:12:21;2.07;;;1.40;;
76210;SDS011;65003;49.518;11.280;2023-03-17T15:14:49;1.43;;;0.80;;
76210;SDS011;65003;49.518;11.280;2023-03-17T15:17:21;1.40;;;0.87;;
76210;SDS011;65003;49.518;11.280;2023-03-17T15:19:50;1.00;;;0.70;;